Time;durP1;ratioP1;P1;durP2;ratioP2;P2;SDS_P1;SDS_P2;PMS_P1;PMS_P2;Temp;Humidity;BMP_temperature;BMP_pressure;BME280_temperature;BME280_humidity;BME280_pressure;Samples;Min_cycle;Max_cycle;Signal;HPM_P1;HPM_P2
2022/12/20 00:01:18;;;;;;;4.47;2.28;;;;;;;;;;5029195;28;20023;-74
2022/12/20 00:03:44;;;;;;;2.72;1.65;;;;;;;;;;5029348;28;20127;-74
2022/12/20 00:06:10;;;;;;;3.58;2.53;;;;;;;;;;5027063;28;20471;-74
2022/12/20 00:08:36;;;;;;;2.88;2.08;;;;;;;;;;5029460;28;20036;-75
2022/12/20 00:11:03;;;;;;;3.00;2.03;;;;;;;;;;5027979;28;20060;-74
2022/12/20 00:13:29;;;;;;;3.85;2.13;;;;;;;;;;5028262;28;20079;-73
2022/12/20 00:16:04;;;;;;;3.60;2.30;;;;;;;;;;5029539;28;20433;-74
2022/12/20 00:18:29;;;;;;;3.17;1.75;;;;;;;;;;5028253;28;20542;-74
2022/12/20 00:20:59;;;;;;;2.63;1.75;;;;;;;;;;5028773;28;20056;-74
2022/12/20 00:23:24;;;;;;;5.28;1.75;;;;;;;;;;5029415;28;20080;-74
2022/12/20 00:25:50;;;;;;;4.50;2.13;;;;;;;;;;5028079;28;20064;-74
2022/12/20 00:28:15;;;;;;;3.45;1.50;;;;;;;;;;5021697;28;20068;-74
2022/12/20 00:30:40;;;;;;;4.60;2.22;;;;;;;;;;5028673;28;20478;-74
2022/12/20 00:33:06;;;;;;;3.20;2.30;;;;;;;;;;5028284;28;20519;-74
2022/12/20 00:35:31;;;;;;;2.40;1.80;;;;;;;;;;5023714;28;20038;-74
2022/12/20 00:37:56;;;;;;;4.32;2.33;;;;;;;;;;5020502;28;20029;-75
2022/12/20 00:40:21;;;;;;;2.58;1.52;;;;;;;;;;5023613;28;20030;-74
2022/12/20 00:42:47;;;;;;;7.00;2.40;;;;;;;;;;5009431;28;20354;-74
2022/12/20 00:45:12;;;;;;;2.47;1.63;;;;;;;;;;5016544;28;20087;-74
2022/12/20 00:47:38;;;;;;;7.10;2.10;;;;;;;;;;5024782;28;20065;-74
2022/12/20 00:50:03;;;;;;;4.15;2.08;;;;;;;;;;5027380;28;20037;-74
2022/12/20 00:52:29;;;;;;;5.50;2.88;;;;;;;;;;5028223;28;20030;-74
2022/12/20 00:54:54;;;;;;;2.42;1.70;;;;;;;;;;5007434;28;20036;-74
2022/12/20 00:57:19;;;;;;;5.90;2.22;;;;;;;;;;5009287;28;20058;-74
2022/12/20 00:59:45;;;;;;;4.93;2.60;;;;;;;;;;5008148;28;20038;-74
2022/12/20 01:02:10;;;;;;;4.90;2.53;;;;;;;;;;5008808;28;20624;-74
2022/12/20 01:04:35;;;;;;;3.40;1.92;;;;;;;;;;5007288;28;20022;-74
2022/12/20 01:07:01;;;;;;;7.20;2.00;;;;;;;;;;5010606;28;20057;-74
2022/12/20 01:09:26;;;;;;;2.70;1.98;;;;;;;;;;5006775;28;20471;-74
2022/12/20 01:11:51;;;;;;;2.20;1.30;;;;;;;;;;5006097;28;20430;-74
2022/12/20 01:14:17;;;;;;;3.83;2.58;;;;;;;;;;5005556;28;20145;-75
2022/12/20 01:16:44;;;;;;;3.70;2.22;;;;;;;;;;5008590;28;20038;-74
2022/12/20 01:19:12;;;;;;;3.72;2.25;;;;;;;;;;5006129;28;20022;-74
2022/12/20 01:21:43;;;;;;;6.18;2.50;;;;;;;;;;5006516;28;20030;-74
2022/12/20 01:24:12;;;;;;;4.38;1.92;;;;;;;;;;5008122;28;20125;-75
2022/12/20 01:26:37;;;;;;;4.18;2.38;;;;;;;;;;5007613;28;20084;-74
2022/12/20 01:29:02;;;;;;;4.40;2.15;;;;;;;;;;5027600;28;20041;-74
2022/12/20 01:31:29;;;;;;;3.05;2.03;;;;;;;;;;5025579;28;20029;-74
2022/12/20 01:33:54;;;;;;;3.22;1.83;;;;;;;;;;5020789;28;20415;-74
2022/12/20 01:36:26;;;;;;;5.53;2.55;;;;;;;;;;5008886;28;20034;-74
2022/12/20 01:38:59;;;;;;;5.03;2.65;;;;;;;;;;5006729;28;20034;-74
2022/12/20 01:41:26;;;;;;;3.33;2.25;;;;;;;;;;5006470;28;20030;-74
2022/12/20 01:44:00;;;;;;;5.55;2.58;;;;;;;;;;5008086;28;20034;-74
2022/12/20 01:46:32;;;;;;;5.25;2.45;;;;;;;;;;5016902;28;20014;-74
2022/12/20 01:49:09;;;;;;;4.80;2.60;;;;;;;;;;5033099;28;20449;-74
2022/12/20 01:51:39;;;;;;;6.03;2.22;;;;;;;;;;5027217;28;20037;-74
2022/12/20 01:54:34;;;;;;;1.85;1.52;;;;;;;;;;5035528;28;20030;-74
2022/12/20 01:57:05;;;;;;;8.85;2.38;;;;;;;;;;5025836;28;20030;-74
2022/12/20 01:59:34;;;;;;;4.68;1.88;;;;;;;;;;5025905;28;20109;-74
2022/12/20 02:02:02;;;;;;;2.75;2.13;;;;;;;;;;5027005;28;20520;-74
2022/12/20 02:04:28;;;;;;;5.30;2.75;;;;;;;;;;5027600;28;20030;-74
2022/12/20 02:06:53;;;;;;;3.72;2.00;;;;;;;;;;5026543;28;20028;-74
2022/12/20 02:09:19;;;;;;;5.30;2.75;;;;;;;;;;5025950;28;20584;-74
2022/12/20 02:11:51;;;;;;;3.60;2.13;;;;;;;;;;5022255;28;20041;-74
2022/12/20 02:14:25;;;;;;;3.58;2.33;;;;;;;;;;5026337;28;20071;-74
2022/12/20 02:17:09;;;;;;;3.50;1.67;;;;;;;;;;5025840;28;20137;-74
2022/12/20 02:20:05;;;;;;;6.00;2.88;;;;;;;;;;5021375;28;20014;-74
2022/12/20 02:23:08;;;;;;;4.07;2.15;;;;;;;;;;5006688;28;20022;-74
2022/12/20 02:25:49;;;;;;;4.68;2.20;;;;;;;;;;5007482;28;20526;-74
2022/12/20 02:28:20;;;;;;;4.18;1.95;;;;;;;;;;5018798;28;20022;-74
2022/12/20 02:30:49;;;;;;;2.38;1.70;;;;;;;;;;5026113;28;20083;-74
2022/12/20 02:33:14;;;;;;;3.83;2.08;;;;;;;;;;5025531;28;20526;-74
2022/12/20 02:35:41;;;;;;;5.28;2.05;;;;;;;;;;5026036;28;20125;-74
2022/12/20 02:38:28;;;;;;;4.57;2.30;;;;;;;;;;5026128;28;20036;-74
2022/12/20 02:40:59;;;;;;;4.18;1.95;;;;;;;;;;5031886;28;20140;-74
2022/12/20 02:46:12;;;;;;;4.13;2.55;;;;;;;;;;5019569;28;20098;-74
2022/12/20 02:48:38;;;;;;;3.35;1.80;;;;;;;;;;5024479;28;20029;-74
2022/12/20 02:51:05;;;;;;;3.47;1.90;;;;;;;;;;5025697;28;20030;-74
2022/12/20 02:53:31;;;;;;;3.85;2.30;;;;;;;;;;5026565;28;20470;-74
2022/12/20 02:56:19;;;;;;;2.95;1.60;;;;;;;;;;5025713;28;20033;-74
2022/12/20 02:58:54;;;;;;;3.65;2.10;;;;;;;;;;5015932;28;20083;-74
2022/12/20 03:01:29;;;;;;;4.72;2.50;;;;;;;;;;5006253;28;20029;-75
2022/12/20 03:03:56;;;;;;;3.92;2.15;;;;;;;;;;5007355;28;20069;-74
2022/12/20 03:06:22;;;;;;;2.58;1.65;;;;;;;;;;5005628;28;20431;-74
2022/12/20 03:08:47;;;;;;;4.75;2.38;;;;;;;;;;5004278;28;20499;-74
2022/12/20 03:11:13;;;;;;;2.90;1.83;;;;;;;;;;5004482;28;20034;-74
2022/12/20 03:13:38;;;;;;;3.72;1.75;;;;;;;;;;5009016;28;20095;-74
2022/12/20 03:16:05;;;;;;;5.13;2.13;;;;;;;;;;5013630;28;20018;-74
2022/12/20 03:18:30;;;;;;;4.38;2.15;;;;;;;;;;5029152;28;20040;-74
2022/12/20 03:20:56;;;;;;;4.70;1.50;;;;;;;;;;5028551;28;20029;-74
2022/12/20 03:23:21;;;;;;;3.92;2.20;;;;;;;;;;5032664;28;20112;-74
2022/12/20 03:25:46;;;;;;;4.15;2.13;;;;;;;;;;5032655;28;20047;-74
2022/12/20 03:28:12;;;;;;;3.30;2.13;;;;;;;;;;5034497;28;20156;-74
2022/12/20 03:30:37;;;;;;;2.88;1.73;;;;;;;;;;5029928;28;20034;-74
2022/12/20 03:33:03;;;;;;;2.88;2.08;;;;;;;;;;5030083;28;20029;-74
2022/12/20 03:35:28;;;;;;;3.58;1.40;;;;;;;;;;5019353;28;20064;-74
2022/12/20 03:37:55;;;;;;;5.63;2.25;;;;;;;;;;5015888;28;20407;-74
2022/12/20 03:40:20;;;;;;;3.00;2.08;;;;;;;;;;5009470;28;20451;-74
2022/12/20 03:42:46;;;;;;;5.65;1.88;;;;;;;;;;5009669;28;20026;-74
2022/12/20 03:45:11;;;;;;;4.47;1.92;;;;;;;;;;5019438;28;20080;-74
2022/12/20 03:47:37;;;;;;;4.40;1.95;;;;;;;;;;5012480;28;20637;-75
2022/12/20 03:50:03;;;;;;;2.53;1.67;;;;;;;;;;5026853;28;20043;-74
2022/12/20 03:52:28;;;;;;;3.45;1.83;;;;;;;;;;5029618;28;20022;-74
2022/12/20 03:54:54;;;;;;;2.75;1.67;;;;;;;;;;5029643;28;20035;-74
2022/12/20 03:57:19;;;;;;;4.55;2.10;;;;;;;;;;5025945;28;20144;-74
2022/12/20 03:59:44;;;;;;;1.95;1.15;;;;;;;;;;5027191;28;20090;-74
2022/12/20 04:02:10;;;;;;;3.80;1.73;;;;;;;;;;5028969;28;20033;-74
2022/12/20 04:04:35;;;;;;;3.63;1.92;;;;;;;;;;5029533;28;20033;-74
2022/12/20 04:07:00;;;;;;;4.75;1.60;;;;;;;;;;5028482;28;20079;-74
2022/12/20 04:09:26;;;;;;;2.78;1.58;;;;;;;;;;5025737;28;20048;-74
2022/12/20 04:11:51;;;;;;;4.32;1.80;;;;;;;;;;5028525;28;20041;-74
2022/12/20 04:14:16;;;;;;;3.92;1.50;;;;;;;;;;5029368;28;20179;-74
2022/12/20 04:16:42;;;;;;;3.38;1.75;;;;;;;;;;5028442;28;20033;-74
2022/12/20 04:19:07;;;;;;;4.53;1.73;;;;;;;;;;5027929;28;20014;-74
2022/12/20 04:21:34;;;;;;;4.80;1.60;;;;;;;;;;5027094;28;20052;-74
2022/12/20 04:24:01;;;;;;;3.75;1.50;;;;;;;;;;5026631;28;20280;-74
2022/12/20 04:26:27;;;;;;;2.08;1.20;;;;;;;;;;5028348;28;20578;-74
2022/12/20 04:28:53;;;;;;;2.88;1.60;;;;;;;;;;5026760;28;20037;-74
2022/12/20 04:31:18;;;;;;;2.30;1.17;;;;;;;;;;5015057;28;20032;-74
2022/12/20 04:33:45;;;;;;;3.17;1.63;;;;;;;;;;5022252;28;20038;-74
2022/12/20 04:36:11;;;;;;;2.70;1.50;;;;;;;;;;5028934;28;20048;-74
2022/12/20 04:38:36;;;;;;;3.17;1.60;;;;;;;;;;5024197;28;20128;-74
2022/12/20 04:41:01;;;;;;;3.55;1.80;;;;;;;;;;5027862;28;20037;-74
2022/12/20 04:43:27;;;;;;;1.58;1.20;;;;;;;;;;5027089;28;20033;-74
2022/12/20 04:45:55;;;;;;;2.63;1.70;;;;;;;;;;5029160;28;20059;-74
2022/12/20 04:48:21;;;;;;;5.10;1.83;;;;;;;;;;5016086;28;20435;-74
2022/12/20 04:50:47;;;;;;;1.60;1.23;;;;;;;;;;5043879;28;20118;-74
2022/12/20 04:55:57;;;;;;;2.40;1.38;;;;;;;;;;5028826;28;20048;-74
2022/12/20 04:58:22;;;;;;;3.97;1.60;;;;;;;;;;5028814;28;20033;-74
2022/12/20 05:00:48;;;;;;;3.90;1.10;;;;;;;;;;5027110;28;20031;-74
2022/12/20 05:03:13;;;;;;;1.70;1.38;;;;;;;;;;5027274;28;20144;-74
2022/12/20 05:05:38;;;;;;;1.88;1.25;;;;;;;;;;5027729;28;20038;-74
2022/12/20 05:08:04;;;;;;;4.05;2.00;;;;;;;;;;5026918;28;20422;-74
2022/12/20 05:10:29;;;;;;;1.88;1.25;;;;;;;;;;5028233;28;20032;-74
2022/12/20 05:12:55;;;;;;;3.60;1.48;;;;;;;;;;5027508;28;20032;-74
2022/12/20 05:15:20;;;;;;;4.35;1.65;;;;;;;;;;5023647;28;20064;-74
2022/12/20 05:17:45;;;;;;;3.55;1.73;;;;;;;;;;5000892;28;20030;-74
2022/12/20 05:20:11;;;;;;;1.92;1.35;;;;;;;;;;5013454;28;20127;-74
2022/12/20 05:28:04;;;;;;;4.10;1.30;;;;;;;;;;5028249;28;19919;-74
2022/12/20 05:30:29;;;;;;;2.40;1.60;;;;;;;;;;5027538;28;20475;-74
2022/12/20 05:32:55;;;;;;;1.77;1.30;;;;;;;;;;5041282;28;20025;-74
2022/12/20 05:35:20;;;;;;;2.22;1.80;;;;;;;;;;5022947;28;20061;-74
2022/12/20 05:37:46;;;;;;;5.03;1.92;;;;;;;;;;5025973;28;20033;-74
2022/12/20 05:40:11;;;;;;;2.40;1.30;;;;;;;;;;5028313;28;20071;-74
2022/12/20 05:42:36;;;;;;;2.10;1.40;;;;;;;;;;5022176;28;20034;-74
2022/12/20 05:45:03;;;;;;;4.20;1.73;;;;;;;;;;5021538;28;20064;-74
2022/12/20 05:47:32;;;;;;;1.45;1.25;;;;;;;;;;5017873;28;20563;-74
2022/12/20 05:50:01;;;;;;;1.80;1.35;;;;;;;;;;5010616;28;20037;-74
2022/12/20 05:52:26;;;;;;;3.72;1.30;;;;;;;;;;5027474;28;20021;-74
2022/12/20 05:54:52;;;;;;;3.72;1.70;;;;;;;;;;5028370;28;20080;-74
2022/12/20 05:57:17;;;;;;;2.80;1.45;;;;;;;;;;5022614;28;20387;-74
2022/12/20 05:59:43;;;;;;;4.80;1.60;;;;;;;;;;5027290;28;20037;-73
2022/12/20 06:02:12;;;;;;;4.88;1.08;;;;;;;;;;5027515;28;20036;-74
2022/12/20 06:04:37;;;;;;;4.30;2.58;;;;;;;;;;5027022;28;20036;-74
2022/12/20 06:07:04;;;;;;;8.98;2.83;;;;;;;;;;5027844;28;20477;-74
2022/12/20 06:09:29;;;;;;;2.75;1.45;;;;;;;;;;5026154;28;20035;-74
2022/12/20 06:11:55;;;;;;;10.50;3.17;;;;;;;;;;5026931;28;20437;-74
2022/12/20 06:14:20;;;;;;;13.40;4.95;;;;;;;;;;5025241;28;20533;-74
2022/12/20 06:16:46;;;;;;;3.83;2.28;;;;;;;;;;5026936;28;20026;-74
2022/12/20 06:19:11;;;;;;;3.13;1.33;;;;;;;;;;5023486;28;20021;-74
2022/12/20 06:21:36;;;;;;;2.63;1.33;;;;;;;;;;5026974;28;20036;-74
2022/12/20 06:24:02;;;;;;;5.40;1.90;;;;;;;;;;5026399;28;20049;-74
2022/12/20 06:26:34;;;;;;;4.05;2.05;;;;;;;;;;5026816;28;20479;-74
2022/12/20 06:29:01;;;;;;;6.25;3.15;;;;;;;;;;5025577;28;20029;-73
2022/12/20 06:31:26;;;;;;;9.25;2.42;;;;;;;;;;5026822;28;20083;-75
2022/12/20 06:33:51;;;;;;;4.00;2.00;;;;;;;;;;5041681;28;20029;-74
2022/12/20 06:36:17;;;;;;;3.40;1.75;;;;;;;;;;5036103;28;20036;-74
2022/12/20 06:38:42;;;;;;;3.20;1.40;;;;;;;;;;5024561;28;20662;-74
2022/12/20 06:41:08;;;;;;;3.85;1.50;;;;;;;;;;5024937;28;20033;-74
2022/12/20 06:43:33;;;;;;;1.63;1.10;;;;;;;;;;5022525;28;20032;-75
2022/12/20 06:45:58;;;;;;;2.33;1.48;;;;;;;;;;5017371;28;20472;-74
2022/12/20 06:48:24;;;;;;;3.03;1.48;;;;;;;;;;5010583;28;20037;-74
2022/12/20 06:50:49;;;;;;;2.65;1.88;;;;;;;;;;5008142;28;20029;-74
2022/12/20 06:53:15;;;;;;;1.73;1.40;;;;;;;;;;5006253;28;20123;-74
2022/12/20 06:55:40;;;;;;;2.58;1.63;;;;;;;;;;5016722;28;20029;-74
2022/12/20 06:58:05;;;;;;;2.78;1.17;;;;;;;;;;5023344;28;20022;-74
2022/12/20 07:00:31;;;;;;;2.63;1.27;;;;;;;;;;5026256;28;20063;-74
2022/12/20 07:02:57;;;;;;;3.75;2.20;;;;;;;;;;5025316;28;20133;-74
2022/12/20 07:05:22;;;;;;;2.15;1.50;;;;;;;;;;5025498;28;20566;-74
2022/12/20 07:07:47;;;;;;;3.50;1.90;;;;;;;;;;5026781;28;20033;-74
2022/12/20 07:10:13;;;;;;;5.57;2.17;;;;;;;;;;5024418;28;20025;-73
2022/12/20 07:12:38;;;;;;;5.30;2.03;;;;;;;;;;5025386;28;20476;-74
2022/12/20 07:15:04;;;;;;;5.65;2.00;;;;;;;;;;5011226;28;20080;-73
2022/12/20 07:17:30;;;;;;;4.13;1.88;;;;;;;;;;5006242;28;20022;-73
2022/12/20 07:19:55;;;;;;;3.70;1.40;;;;;;;;;;5005880;28;20544;-73
2022/12/20 07:22:20;;;;;;;2.00;0.98;;;;;;;;;;5006033;28;20064;-73
2022/12/20 07:24:46;;;;;;;3.63;1.50;;;;;;;;;;5005389;28;20072;-74
2022/12/20 07:27:12;;;;;;;4.32;1.65;;;;;;;;;;5003422;28;20045;-73
2022/12/20 07:29:40;;;;;;;2.00;1.40;;;;;;;;;;5012939;28;20100;-74
2022/12/20 07:32:06;;;;;;;3.20;1.40;;;;;;;;;;5010477;28;20021;-74
2022/12/20 07:34:32;;;;;;;1.80;1.10;;;;;;;;;;5026710;28;20021;-74
2022/12/20 07:36:57;;;;;;;2.22;1.33;;;;;;;;;;5006650;28;20539;-74
2022/12/20 07:39:23;;;;;;;2.20;1.33;;;;;;;;;;5020302;28;20033;-73
2022/12/20 07:41:48;;;;;;;3.03;1.48;;;;;;;;;;5005364;28;20084;-74
2022/12/20 07:44:13;;;;;;;3.50;1.77;;;;;;;;;;5013828;28;20057;-74
2022/12/20 07:46:39;;;;;;;2.22;1.15;;;;;;;;;;5015673;28;21452;-73
2022/12/20 07:49:04;;;;;;;2.67;1.33;;;;;;;;;;5009241;28;20575;-74
2022/12/20 07:51:42;;;;;;;2.28;1.13;;;;;;;;;;5010784;28;20069;-74
2022/12/20 07:54:14;;;;;;;2.35;1.35;;;;;;;;;;5012879;28;20054;-74
2022/12/20 07:56:44;;;;;;;3.55;1.60;;;;;;;;;;5020650;28;20041;-73
2022/12/20 07:59:15;;;;;;;1.67;1.20;;;;;;;;;;5008542;28;20037;-73
2022/12/20 08:01:43;;;;;;;3.47;1.77;;;;;;;;;;5015577;28;20037;-74
2022/12/20 08:04:23;;;;;;;2.67;1.40;;;;;;;;;;5021071;28;20491;-74
2022/12/20 08:06:50;;;;;;;3.78;1.60;;;;;;;;;;5018878;28;20136;-73
2022/12/20 08:09:16;;;;;;;1.52;1.20;;;;;;;;;;5007188;28;20030;-73
2022/12/20 08:11:46;;;;;;;2.55;1.10;;;;;;;;;;5008685;28;20053;-73
2022/12/20 08:14:11;;;;;;;5.55;1.65;;;;;;;;;;5013872;28;20088;-74
2022/12/20 08:16:37;;;;;;;1.90;1.20;;;;;;;;;;5020974;28;20021;-74
2022/12/20 08:19:02;;;;;;;2.85;1.58;;;;;;;;;;5008975;28;20026;-74
2022/12/20 08:21:29;;;;;;;2.10;1.52;;;;;;;;;;5003131;28;20037;-73
2022/12/20 08:23:54;;;;;;;1.90;1.38;;;;;;;;;;5003971;28;20070;-74
2022/12/20 08:26:19;;;;;;;1.52;1.00;;;;;;;;;;5008488;28;20058;-73
2022/12/20 08:28:45;;;;;;;2.58;1.77;;;;;;;;;;5026795;28;20030;-74
2022/12/20 08:31:11;;;;;;;2.90;1.55;;;;;;;;;;5044541;28;20040;-74
2022/12/20 08:33:37;;;;;;;2.85;1.80;;;;;;;;;;5032822;28;20033;-74
2022/12/20 08:36:06;;;;;;;3.55;1.75;;;;;;;;;;5019858;28;20037;-74
2022/12/20 08:38:32;;;;;;;3.78;1.75;;;;;;;;;;5013180;28;20406;-74
2022/12/20 08:41:07;;;;;;;1.95;1.27;;;;;;;;;;5014158;28;20068;-73
2022/12/20 08:43:33;;;;;;;2.45;1.25;;;;;;;;;;5024593;28;20029;-73
2022/12/20 08:45:59;;;;;;;1.88;1.17;;;;;;;;;;5026846;28;20010;-73
2022/12/20 08:48:25;;;;;;;2.25;1.48;;;;;;;;;;5026821;28;20163;-72
2022/12/20 08:50:57;;;;;;;3.22;1.70;;;;;;;;;;5020293;28;20116;-73
2022/12/20 08:53:23;;;;;;;5.60;1.80;;;;;;;;;;5014433;28;20518;-74
2022/12/20 08:55:49;;;;;;;3.55;1.65;;;;;;;;;;5014698;28;20060;-74
2022/12/20 08:58:14;;;;;;;4.05;1.70;;;;;;;;;;5038908;28;20025;-74
2022/12/20 09:00:40;;;;;;;6.55;1.42;;;;;;;;;;4990791;28;20423;-74
2022/12/20 09:03:06;;;;;;;3.90;1.42;;;;;;;;;;5006497;28;20049;-74
2022/12/20 09:05:31;;;;;;;2.70;1.50;;;;;;;;;;5019909;28;20045;-74
2022/12/20 09:07:57;;;;;;;3.80;1.60;;;;;;;;;;5025302;28;20632;-74
2022/12/20 09:10:22;;;;;;;2.45;1.65;;;;;;;;;;5023605;28;20021;-74
2022/12/20 09:12:47;;;;;;;3.20;1.63;;;;;;;;;;5020462;28;20391;-74
2022/12/20 09:15:13;;;;;;;2.20;1.20;;;;;;;;;;5011671;28;20073;-74
2022/12/20 09:17:38;;;;;;;6.65;1.77;;;;;;;;;;5009612;28;20629;-74
2022/12/20 09:20:04;;;;;;;2.58;1.45;;;;;;;;;;5008417;28;20121;-74
2022/12/20 09:22:29;;;;;;;2.08;1.40;;;;;;;;;;5007023;28;20577;-74
2022/12/20 09:24:57;;;;;;;1.42;1.33;;;;;;;;;;5023813;28;20140;-74
2022/12/20 09:27:22;;;;;;;2.78;1.55;;;;;;;;;;5026290;28;20033;-74
2022/12/20 09:29:47;;;;;;;2.47;1.45;;;;;;;;;;5016867;28;20044;-74
2022/12/20 09:32:13;;;;;;;1.95;1.20;;;;;;;;;;5019201;28;20050;-74
2022/12/20 09:34:38;;;;;;;3.15;1.55;;;;;;;;;;5012833;28;20025;-74
2022/12/20 09:37:04;;;;;;;2.28;1.83;;;;;;;;;;5010495;28;20438;-74
2022/12/20 09:39:30;;;;;;;2.90;1.75;;;;;;;;;;5015003;28;20060;-74
2022/12/20 09:41:56;;;;;;;5.78;2.53;;;;;;;;;;5015553;28;20112;-74
2022/12/20 09:44:28;;;;;;;6.88;2.05;;;;;;;;;;5025637;28;20148;-74
2022/12/20 09:46:57;;;;;;;2.35;1.45;;;;;;;;;;5027227;28;20037;-74
2022/12/20 09:49:28;;;;;;;5.88;2.28;;;;;;;;;;5028711;28;20029;-74
2022/12/20 09:52:12;;;;;;;2.42;1.60;;;;;;;;;;5008697;28;20061;-74
2022/12/20 09:54:47;;;;;;;3.33;1.50;;;;;;;;;;5005908;28;20128;-74
2022/12/20 09:57:33;;;;;;;5.15;1.63;;;;;;;;;;5008578;28;20132;-74
2022/12/20 09:59:59;;;;;;;3.60;1.88;;;;;;;;;;5010485;28;20056;-74
2022/12/20 10:02:25;;;;;;;4.60;1.55;;;;;;;;;;5008910;28;20033;-73
2022/12/20 10:04:52;;;;;;;4.38;1.98;;;;;;;;;;5009299;28;20173;-74
2022/12/20 10:07:40;;;;;;;4.03;1.27;;;;;;;;;;5029083;28;20037;-74
2022/12/20 10:10:27;;;;;;;4.40;2.15;;;;;;;;;;5014766;28;20049;-73
2022/12/20 10:13:12;;;;;;;2.75;1.90;;;;;;;;;;5016991;28;20041;-74
2022/12/20 10:15:45;;;;;;;4.13;1.63;;;;;;;;;;5042980;28;20057;-74
2022/12/20 10:18:48;;;;;;;3.33;1.92;;;;;;;;;;5045988;28;20111;-74
2022/12/20 10:21:19;;;;;;;5.10;2.08;;;;;;;;;;5012670;28;20644;-75
2022/12/20 10:24:01;;;;;;;3.80;1.83;;;;;;;;;;5009377;28;20486;-74
2022/12/20 10:26:27;;;;;;;3.15;1.90;;;;;;;;;;4995700;28;20511;-74
2022/12/20 10:28:53;;;;;;;2.95;1.92;;;;;;;;;;4985977;28;20432;-74
2022/12/20 10:31:18;;;;;;;4.20;2.10;;;;;;;;;;4987199;28;20022;-74
2022/12/20 10:33:44;;;;;;;4.18;1.80;;;;;;;;;;4984833;28;20041;-74
2022/12/20 10:36:17;;;;;;;5.18;1.77;;;;;;;;;;4983590;28;20049;-74
2022/12/20 10:38:46;;;;;;;1.98;1.60;;;;;;;;;;4997159;28;20046;-74
2022/12/20 10:41:17;;;;;;;3.03;1.90;;;;;;;;;;4997718;28;20416;-74
2022/12/20 10:43:46;;;;;;;5.28;1.73;;;;;;;;;;5002178;28;20039;-73
2022/12/20 10:46:15;;;;;;;2.22;1.63;;;;;;;;;;4991204;28;20030;-74
2022/12/20 10:48:42;;;;;;;2.70;1.42;;;;;;;;;;4997236;28;20037;-74
2022/12/20 10:51:13;;;;;;;4.90;2.13;;;;;;;;;;5006177;28;20085;-72
2022/12/20 10:54:00;;;;;;;4.72;2.38;;;;;;;;;;5020412;28;20165;-73
2022/12/20 10:56:31;;;;;;;4.70;2.60;;;;;;;;;;4999038;28;20133;-73
2022/12/20 10:59:28;;;;;;;5.97;2.97;;;;;;;;;;5001187;28;20030;-73
2022/12/20 11:01:53;;;;;;;8.68;3.88;;;;;;;;;;4983547;28;20026;-73
2022/12/20 11:04:37;;;;;;;6.80;2.83;;;;;;;;;;4982007;28;20036;-73
2022/12/20 11:07:22;;;;;;;4.15;2.28;;;;;;;;;;4983633;28;20049;-71
2022/12/20 11:09:54;;;;;;;7.57;3.20;;;;;;;;;;5005444;28;21327;-74
2022/12/20 11:12:20;;;;;;;7.88;3.08;;;;;;;;;;5007331;28;20036;-75
2022/12/20 11:14:46;;;;;;;6.30;3.10;;;;;;;;;;5009909;28;20041;-75
2022/12/20 11:17:31;;;;;;;4.60;2.10;;;;;;;;;;5018227;28;20695;-75
2022/12/20 11:20:24;;;;;;;5.28;2.17;;;;;;;;;;5016461;28;20132;-75
2022/12/20 11:23:04;;;;;;;2.22;1.85;;;;;;;;;;5005604;28;20050;-74
2022/12/20 11:25:51;;;;;;;6.18;2.55;;;;;;;;;;5008018;28;20026;-75
2022/12/20 11:28:31;;;;;;;6.57;2.30;;;;;;;;;;5011990;28;20052;-74
2022/12/20 11:31:24;;;;;;;5.55;1.90;;;;;;;;;;5037915;28;20054;-75
2022/12/20 11:34:08;;;;;;;4.13;2.33;;;;;;;;;;5002931;28;20511;-74
2022/12/20 11:37:03;;;;;;;3.17;2.20;;;;;;;;;;5010446;28;20045;-74
2022/12/20 11:40:01;;;;;;;4.38;2.08;;;;;;;;;;5016211;28;20042;-74
2022/12/20 11:43:04;;;;;;;4.43;2.35;;;;;;;;;;5011568;28;20537;-74
2022/12/20 11:45:52;;;;;;;3.13;2.53;;;;;;;;;;5009487;28;20051;-74
2022/12/20 11:48:29;;;;;;;4.63;2.15;;;;;;;;;;5013138;28;20052;-74
2022/12/20 11:50:57;;;;;;;6.00;2.30;;;;;;;;;;5010786;28;20116;-75
2022/12/20 11:53:44;;;;;;;3.22;2.17;;;;;;;;;;5010383;28;20546;-74
2022/12/20 11:56:31;;;;;;;11.85;2.70;;;;;;;;;;5010199;28;20042;-74
2022/12/20 11:59:13;;;;;;;5.93;2.08;;;;;;;;;;5008948;28;20048;-74
2022/12/20 12:01:44;;;;;;;2.25;1.83;;;;;;;;;;5008058;28;20021;-74
2022/12/20 12:04:15;;;;;;;4.07;1.85;;;;;;;;;;5007840;28;20113;-74
2022/12/20 12:06:47;;;;;;;3.13;2.13;;;;;;;;;;5008081;28;20049;-74
2022/12/20 12:09:21;;;;;;;4.05;1.90;;;;;;;;;;5011254;28;20084;-74
2022/12/20 12:11:54;;;;;;;4.25;1.85;;;;;;;;;;5002076;28;20585;-74
2022/12/20 12:14:37;;;;;;;5.72;2.13;;;;;;;;;;5007736;28;20101;-74
2022/12/20 12:17:20;;;;;;;4.67;2.07;;;;;;;;;;5004623;28;20041;-75
2022/12/20 12:19:49;;;;;;;6.60;3.00;;;;;;;;;;4994364;28;20029;-74
2022/12/20 12:22:21;;;;;;;4.20;1.52;;;;;;;;;;5000849;28;20029;-74
2022/12/20 12:24:54;;;;;;;4.97;1.98;;;;;;;;;;4978299;28;20068;-74
2022/12/20 12:27:26;;;;;;;6.03;2.03;;;;;;;;;;5005266;28;20049;-75
2022/12/20 12:29:55;;;;;;;6.55;2.55;;;;;;;;;;5003522;28;20042;-75
2022/12/20 12:32:30;;;;;;;3.95;2.40;;;;;;;;;;5006084;28;20053;-76
2022/12/20 12:35:22;;;;;;;3.05;1.63;;;;;;;;;;4988669;28;20077;-74
2022/12/20 12:38:08;;;;;;;5.45;2.22;;;;;;;;;;4984147;28;20037;-75
2022/12/20 12:41:08;;;;;;;8.50;3.08;;;;;;;;;;5015568;28;20029;-75
2022/12/20 12:43:39;;;;;;;6.10;2.85;;;;;;;;;;5000308;28;20450;-75
2022/12/20 12:46:11;;;;;;;5.90;2.00;;;;;;;;;;5012170;28;20057;-75
2022/12/20 12:49:01;;;;;;;6.03;2.78;;;;;;;;;;5008207;28;20040;-75
2022/12/20 12:51:39;;;;;;;3.70;2.40;;;;;;;;;;5010565;28;20034;-75
2022/12/20 12:54:22;;;;;;;3.35;2.28;;;;;;;;;;5018187;28;20523;-75
2022/12/20 12:56:49;;;;;;;6.40;2.83;;;;;;;;;;5011253;28;20107;-73
2022/12/20 12:59:23;;;;;;;6.05;3.03;;;;;;;;;;5000681;28;20041;-75
2022/12/20 13:01:52;;;;;;;5.35;2.70;;;;;;;;;;5002141;28;20045;-77
2022/12/20 13:04:20;;;;;;;4.90;2.42;;;;;;;;;;5021856;28;20056;-75
2022/12/20 13:06:45;;;;;;;8.55;2.95;;;;;;;;;;5016341;28;20072;-76
2022/12/20 13:09:36;;;;;;;5.68;2.60;;;;;;;;;;5018574;28;20690;-77
2022/12/20 13:12:36;;;;;;;5.70;2.50;;;;;;;;;;5013406;28;20043;-77
2022/12/20 13:15:20;;;;;;;4.75;2.20;;;;;;;;;;5011822;28;20284;-75
2022/12/20 13:17:50;;;;;;;;;;;;;;;;;;5018969;28;20049;-77
2022/12/20 13:20:30;;;;;;;3.63;2.28;;;;;;;;;;5020642;28;20382;-76
2022/12/20 13:23:07;;;;;;;6.53;2.53;;;;;;;;;;5009524;28;20041;-77
2022/12/20 13:25:36;;;;;;;3.65;2.42;;;;;;;;;;5026807;28;20422;-77
2022/12/20 13:28:21;;;;;;;7.85;2.88;;;;;;;;;;5015657;28;20025;-75
2022/12/20 13:31:08;;;;;;;4.45;2.25;;;;;;;;;;5023147;28;20049;-75
2022/12/20 13:33:52;;;;;;;3.20;1.92;;;;;;;;;;5007412;28;20168;-75
2022/12/20 13:36:27;;;;;;;4.97;2.60;;;;;;;;;;5013964;28;20033;-75
2022/12/20 13:38:56;;;;;;;5.65;3.00;;;;;;;;;;5013334;28;20247;-76
2022/12/20 13:41:33;;;;;;;6.30;2.72;;;;;;;;;;5013015;28;20132;-76
2022/12/20 13:44:16;;;;;;;7.38;2.92;;;;;;;;;;5024212;28;20033;-77
2022/12/20 13:47:05;;;;;;;7.78;3.35;;;;;;;;;;5012990;28;20068;-76
2022/12/20 13:49:36;;;;;;;4.70;2.33;;;;;;;;;;5015156;28;20080;-76
2022/12/20 13:52:10;;;;;;;9.00;3.15;;;;;;;;;;5009516;28;20029;-75
2022/12/20 13:54:47;;;;;;;6.80;2.53;;;;;;;;;;5032220;28;20045;-76
2022/12/20 13:57:20;;;;;;;5.78;3.10;;;;;;;;;;5006691;28;20053;-76
2022/12/20 13:59:47;;;;;;;4.07;2.33;;;;;;;;;;5016526;28;20083;-75
2022/12/20 14:02:23;;;;;;;5.28;2.22;;;;;;;;;;5016921;28;20067;-75
2022/12/20 14:05:16;;;;;;;3.78;2.17;;;;;;;;;;5019175;28;20060;-76
2022/12/20 14:07:42;;;;;;;5.85;2.95;;;;;;;;;;5008227;28;20095;-73
2022/12/20 14:10:21;;;;;;;6.50;2.92;;;;;;;;;;5009799;28;20022;-74
2022/12/20 14:12:49;;;;;;;3.92;2.38;;;;;;;;;;5007674;28;20072;-74
2022/12/20 14:15:32;;;;;;;6.85;3.22;;;;;;;;;;5017868;28;20125;-75
2022/12/20 14:18:05;;;;;;;5.15;3.13;;;;;;;;;;5025824;28;20056;-74
2022/12/20 14:20:33;;;;;;;4.80;3.15;;;;;;;;;;5005867;28;20531;-73
2022/12/20 14:23:18;;;;;;;4.38;2.70;;;;;;;;;;5007239;28;20045;-73
2022/12/20 14:25:53;;;;;;;7.53;3.10;;;;;;;;;;5010351;28;20045;-74
2022/12/20 14:28:24;;;;;;;6.45;2.78;;;;;;;;;;5013118;28;20022;-73
2022/12/20 14:30:49;;;;;;;7.15;3.13;;;;;;;;;;5010356;28;20634;-73
2022/12/20 14:33:27;;;;;;;5.00;2.65;;;;;;;;;;5020318;28;20042;-74
2022/12/20 14:35:53;;;;;;;4.03;2.63;;;;;;;;;;5007250;28;20044;-75
2022/12/20 14:38:38;;;;;;;9.93;3.47;;;;;;;;;;5005597;28;20435;-74
2022/12/20 14:41:03;;;;;;;5.82;3.35;;;;;;;;;;5006404;28;20868;-74
2022/12/20 14:43:33;;;;;;;4.82;2.65;;;;;;;;;;5015943;28;20500;-74
2022/12/20 14:46:16;;;;;;;6.13;3.03;;;;;;;;;;5008929;28;20075;-74
2022/12/20 14:48:42;;;;;;;6.93;3.38;;;;;;;;;;5004967;28;20072;-73
2022/12/20 14:51:07;;;;;;;9.35;2.53;;;;;;;;;;4999973;28;20129;-74
2022/12/20 14:53:33;;;;;;;8.35;3.17;;;;;;;;;;5012285;28;20237;-74
2022/12/20 14:55:58;;;;;;;7.05;3.42;;;;;;;;;;5006475;28;20832;-74
2022/12/20 14:58:30;;;;;;;6.15;3.20;;;;;;;;;;5015998;28;20487;-74
2022/12/20 15:01:01;;;;;;;9.32;3.30;;;;;;;;;;5021701;28;20035;-73
2022/12/20 15:03:27;;;;;;;4.97;3.03;;;;;;;;;;5038290;28;20554;-74
2022/12/20 15:05:59;;;;;;;5.13;2.47;;;;;;;;;;5024426;28;20522;-74
2022/12/20 15:08:29;;;;;;;6.70;3.08;;;;;;;;;;5024320;28;20041;-74
2022/12/20 15:10:58;;;;;;;5.53;3.10;;;;;;;;;;5028157;28;20041;-74
2022/12/20 15:13:48;;;;;;;6.38;3.47;;;;;;;;;;5027040;28;20028;-74